AWG317G LROP-LRIA
Flight info
| Callsign | AWG317G |
|---|---|
| Flight time | 0h 31m |
| Altitude | 29000 |
| Route | DENAK T74 ISI |
| Aircraft | A20N/M-SDE2E3FGHIRWXY/LB1 |
Departure
| Time | 2026-04-21 16:36 |
|---|---|
| Airport | Bucharest Henri Coandă International Airport (LROP) |
Arrival
| Time | 2026-04-21 17:08 |
|---|---|
| Airport | Iaşi International Airport (LRIA) |
| Time | Latitude | Longitude | Altitude | Speed | Heading |
|---|---|---|---|---|---|
| 2026-04-21 16:19 | 44.57142 | 26.08113 | 326 ft | 0 kts | 174° |
| 2026-04-21 16:25 | 44.57158 | 26.08110 | 324 ft | 3 kts | 174° |
| 2026-04-21 16:25 | 44.57177 | 26.08107 | 323 ft | 3 kts | 158° |
| 2026-04-21 16:25 | 44.57193 | 26.08095 | 325 ft | 3 kts | 135° |
| 2026-04-21 16:25 | 44.57202 | 26.08073 | 324 ft | 3 kts | 94° |
| 2026-04-21 16:26 | 44.57203 | 26.08064 | 324 ft | 0 kts | 84° |
| 2026-04-21 16:27 | 44.57203 | 26.08067 | 324 ft | 1 kts | 86° |
| 2026-04-21 16:27 | 44.57204 | 26.08111 | 324 ft | 6 kts | 86° |
| 2026-04-21 16:27 | 44.57207 | 26.08180 | 326 ft | 9 kts | 86° |
| 2026-04-21 16:28 | 44.57211 | 26.08240 | 326 ft | 10 kts | 84° |
| 2026-04-21 16:28 | 44.57222 | 26.08347 | 326 ft | 12 kts | 82° |
| 2026-04-21 16:28 | 44.57232 | 26.08466 | 326 ft | 12 kts | 83° |
| 2026-04-21 16:28 | 44.57291 | 26.08497 | 324 ft | 10 kts | 353° |
| 2026-04-21 16:29 | 44.57364 | 26.08486 | 325 ft | 11 kts | 354° |
| 2026-04-21 16:29 | 44.57441 | 26.08475 | 326 ft | 12 kts | 354° |
| 2026-04-21 16:29 | 44.57524 | 26.08464 | 326 ft | 12 kts | 354° |
| 2026-04-21 16:29 | 44.57537 | 26.08462 | 325 ft | 0 kts | 354° |
| 2026-04-21 16:30 | 44.57559 | 26.08458 | 326 ft | 2 kts | 353° |
| 2026-04-21 16:30 | 44.57561 | 26.08458 | 326 ft | 0 kts | 353° |
| 2026-04-21 16:31 | 44.57562 | 26.08458 | 326 ft | 1 kts | 353° |
| 2026-04-21 16:31 | 44.57609 | 26.08450 | 325 ft | 11 kts | 355° |
| 2026-04-21 16:32 | 44.57668 | 26.08513 | 325 ft | 11 kts | 86° |
| 2026-04-21 16:32 | 44.57669 | 26.08530 | 324 ft | 0 kts | 83° |
| 2026-04-21 16:32 | 44.57669 | 26.08531 | 325 ft | 0 kts | 84° |
| 2026-04-21 16:32 | 44.57669 | 26.08533 | 325 ft | 0 kts | 84° |
| 2026-04-21 16:34 | 44.57669 | 26.08534 | 325 ft | 0 kts | 84° |
| 2026-04-21 16:35 | 44.57669 | 26.08535 | 325 ft | 0 kts | 84° |
| 2026-04-21 16:36 | 44.57672 | 26.08568 | 327 ft | 19 kts | 84° |
| 2026-04-21 16:36 | 44.57712 | 26.09110 | 324 ft | 93 kts | 84° |
| 2026-04-21 16:36 | 44.57804 | 26.10364 | 383 ft | 155 kts | 84° |
| 2026-04-21 16:36 | 44.57879 | 26.11870 | 1203 ft | 156 kts | 84° |
| 2026-04-21 16:37 | 44.57994 | 26.13416 | 1985 ft | 167 kts | 81° |
| 2026-04-21 16:37 | 44.58148 | 26.15182 | 2429 ft | 198 kts | 83° |
| 2026-04-21 16:37 | 44.58314 | 26.17268 | 2744 ft | 233 kts | 83° |
| 2026-04-21 16:37 | 44.58502 | 26.19675 | 3254 ft | 258 kts | 83° |
| 2026-04-21 16:38 | 44.58915 | 26.22142 | 4047 ft | 267 kts | 66° |
| 2026-04-21 16:38 | 44.59980 | 26.24277 | 4944 ft | 269 kts | 38° |
| 2026-04-21 16:38 | 44.61589 | 26.25531 | 5812 ft | 268 kts | 19° |
| 2026-04-21 16:38 | 44.63365 | 26.26419 | 6660 ft | 272 kts | 15° |
| 2026-04-21 16:39 | 44.65182 | 26.27231 | 7498 ft | 275 kts | 14° |
| 2026-04-21 16:39 | 44.67022 | 26.28046 | 8384 ft | 278 kts | 14° |
| 2026-04-21 16:39 | 44.68881 | 26.28880 | 9268 ft | 282 kts | 14° |
| 2026-04-21 16:39 | 44.70751 | 26.29731 | 10149 ft | 286 kts | 14° |
| 2026-04-21 16:40 | 44.72710 | 26.30627 | 10670 ft | 304 kts | 14° |
| 2026-04-21 16:40 | 44.74790 | 26.31577 | 11028 ft | 325 kts | 14° |
| 2026-04-21 16:40 | 44.77015 | 26.32595 | 11519 ft | 341 kts | 14° |
| 2026-04-21 16:40 | 44.79297 | 26.33646 | 12240 ft | 348 kts | 14° |
| 2026-04-21 16:41 | 44.81628 | 26.34724 | 13044 ft | 353 kts | 15° |
| 2026-04-21 16:41 | 44.83955 | 26.35805 | 13861 ft | 358 kts | 15° |
| 2026-04-21 16:41 | 44.86335 | 26.36914 | 14581 ft | 362 kts | 14° |
| 2026-04-21 16:41 | 44.88759 | 26.38046 | 15309 ft | 367 kts | 14° |
| 2026-04-21 16:42 | 44.91196 | 26.39187 | 16027 ft | 372 kts | 14° |
| 2026-04-21 16:42 | 44.93643 | 26.40334 | 16741 ft | 376 kts | 14° |
| 2026-04-21 16:42 | 44.96150 | 26.41511 | 17448 ft | 380 kts | 14° |
| 2026-04-21 16:42 | 44.98688 | 26.42701 | 18160 ft | 384 kts | 13° |
| 2026-04-21 16:43 | 45.01265 | 26.43753 | 18784 ft | 387 kts | 9° |
| 2026-04-21 16:43 | 45.03900 | 26.44638 | 19360 ft | 390 kts | 7° |
| 2026-04-21 16:43 | 45.06578 | 26.45415 | 19955 ft | 394 kts | 6° |
| 2026-04-21 16:43 | 45.09255 | 26.46121 | 20541 ft | 398 kts | 5° |
| 2026-04-21 16:44 | 45.12007 | 26.46810 | 21131 ft | 402 kts | 5° |
| 2026-04-21 16:44 | 45.14767 | 26.47488 | 21722 ft | 407 kts | 5° |
| 2026-04-21 16:44 | 45.17577 | 26.48177 | 22298 ft | 411 kts | 5° |
| 2026-04-21 16:44 | 45.20415 | 26.48877 | 22877 ft | 416 kts | 5° |
| 2026-04-21 16:45 | 45.23275 | 26.49588 | 23460 ft | 420 kts | 5° |
| 2026-04-21 16:45 | 45.26171 | 26.50314 | 23937 ft | 424 kts | 5° |
| 2026-04-21 16:45 | 45.29100 | 26.51054 | 24421 ft | 427 kts | 5° |
| 2026-04-21 16:45 | 45.31996 | 26.51789 | 24893 ft | 430 kts | 5° |
| 2026-04-21 16:46 | 45.34954 | 26.52540 | 25361 ft | 432 kts | 5° |
| 2026-04-21 16:46 | 45.37929 | 26.53297 | 25798 ft | 436 kts | 5° |
| 2026-04-21 16:46 | 45.40924 | 26.54060 | 26249 ft | 438 kts | 5° |
| 2026-04-21 16:46 | 45.43944 | 26.54830 | 26693 ft | 441 kts | 5° |
| 2026-04-21 16:47 | 45.46978 | 26.55603 | 27137 ft | 443 kts | 5° |
| 2026-04-21 16:47 | 45.50035 | 26.56384 | 27548 ft | 446 kts | 5° |
| 2026-04-21 16:47 | 45.53118 | 26.57170 | 27970 ft | 450 kts | 5° |
| 2026-04-21 16:47 | 45.56179 | 26.57953 | 28351 ft | 453 kts | 5° |
| 2026-04-21 16:48 | 45.59296 | 26.58751 | 28759 ft | 455 kts | 5° |
| 2026-04-21 16:48 | 45.62431 | 26.59555 | 29023 ft | 456 kts | 6° |
| 2026-04-21 16:48 | 45.65529 | 26.60354 | 29052 ft | 448 kts | 6° |
| 2026-04-21 16:49 | 45.71622 | 26.61925 | 29053 ft | 446 kts | 6° |
| 2026-04-21 16:49 | 45.77743 | 26.63558 | 29055 ft | 448 kts | 9° |
| 2026-04-21 16:50 | 45.83685 | 26.66355 | 29046 ft | 453 kts | 17° |
| 2026-04-21 16:50 | 45.89587 | 26.69628 | 29053 ft | 454 kts | 18° |
| 2026-04-21 16:51 | 45.95571 | 26.72993 | 29051 ft | 475 kts | 18° |
| 2026-04-21 16:51 | 46.01686 | 26.76445 | 29046 ft | 460 kts | 18° |
| 2026-04-21 16:52 | 46.07651 | 26.79825 | 29052 ft | 471 kts | 18° |
| 2026-04-21 16:52 | 46.13791 | 26.83304 | 29045 ft | 463 kts | 18° |
| 2026-04-21 16:53 | 46.19492 | 26.86552 | 28629 ft | 464 kts | 18° |
| 2026-04-21 16:53 | 46.22479 | 26.88251 | 27586 ft | 468 kts | 18° |
| 2026-04-21 16:53 | 46.25544 | 26.89993 | 26419 ft | 475 kts | 18° |
| 2026-04-21 16:53 | 46.28640 | 26.91754 | 25452 ft | 477 kts | 18° |
| 2026-04-21 16:54 | 46.31676 | 26.93484 | 24513 ft | 477 kts | 18° |
| 2026-04-21 16:54 | 46.34791 | 26.95261 | 23760 ft | 474 kts | 18° |
| 2026-04-21 16:54 | 46.37792 | 26.96981 | 23305 ft | 461 kts | 19° |
| 2026-04-21 16:54 | 46.40787 | 26.98700 | 22429 ft | 457 kts | 19° |
| 2026-04-21 16:55 | 46.43737 | 27.00392 | 21612 ft | 453 kts | 19° |
| 2026-04-21 16:55 | 46.46639 | 27.02057 | 20845 ft | 448 kts | 19° |
| 2026-04-21 16:55 | 46.49502 | 27.03701 | 20102 ft | 443 kts | 19° |
| 2026-04-21 16:55 | 46.52354 | 27.05341 | 19378 ft | 438 kts | 19° |
| 2026-04-21 16:56 | 46.55173 | 27.06963 | 18657 ft | 433 kts | 19° |
| 2026-04-21 16:56 | 46.57960 | 27.08569 | 17878 ft | 428 kts | 19° |
| 2026-04-21 16:56 | 46.60723 | 27.10166 | 17086 ft | 423 kts | 19° |
| 2026-04-21 16:56 | 46.63415 | 27.11727 | 16321 ft | 418 kts | 19° |
| 2026-04-21 16:57 | 46.66102 | 27.13287 | 15574 ft | 413 kts | 19° |
| 2026-04-21 16:57 | 46.68756 | 27.14829 | 14827 ft | 408 kts | 19° |
| 2026-04-21 16:57 | 46.71380 | 27.16358 | 14114 ft | 403 kts | 19° |
| 2026-04-21 16:57 | 46.73974 | 27.17872 | 13324 ft | 399 kts | 19° |
| 2026-04-21 16:58 | 46.76509 | 27.19351 | 12552 ft | 394 kts | 19° |
| 2026-04-21 16:58 | 46.79046 | 27.20832 | 11794 ft | 389 kts | 19° |
| 2026-04-21 16:58 | 46.81544 | 27.22290 | 11180 ft | 380 kts | 19° |
| 2026-04-21 16:58 | 46.83986 | 27.23718 | 10572 ft | 373 kts | 19° |
| 2026-04-21 16:59 | 46.86351 | 27.25104 | 10298 ft | 358 kts | 19° |
| 2026-04-21 16:59 | 46.88585 | 27.26421 | 10131 ft | 340 kts | 19° |
| 2026-04-21 16:59 | 46.90675 | 27.27660 | 9977 ft | 316 kts | 19° |
| 2026-04-21 16:59 | 46.92651 | 27.28835 | 9649 ft | 297 kts | 19° |
| 2026-04-21 17:00 | 46.94544 | 27.29958 | 9149 ft | 288 kts | 19° |
| 2026-04-21 17:00 | 46.96387 | 27.31052 | 8626 ft | 281 kts | 20° |
| 2026-04-21 17:00 | 46.97547 | 27.31895 | 8324 ft | 280 kts | 30° |
| 2026-04-21 17:00 | 46.99257 | 27.34625 | 7887 ft | 276 kts | 63° |
| 2026-04-21 17:01 | 46.99676 | 27.37390 | 7435 ft | 282 kts | 89° |
| 2026-04-21 17:01 | 46.99522 | 27.40256 | 6948 ft | 287 kts | 97° |
| 2026-04-21 17:01 | 46.99232 | 27.43143 | 6540 ft | 285 kts | 98° |
| 2026-04-21 17:01 | 46.98933 | 27.46013 | 6117 ft | 284 kts | 98° |
| 2026-04-21 17:02 | 46.98647 | 27.48864 | 5714 ft | 281 kts | 97° |
| 2026-04-21 17:02 | 46.98378 | 27.51662 | 5319 ft | 279 kts | 97° |
| 2026-04-21 17:02 | 46.98118 | 27.54467 | 4922 ft | 276 kts | 96° |
| 2026-04-21 17:02 | 46.97864 | 27.57265 | 4534 ft | 274 kts | 96° |
| 2026-04-21 17:03 | 46.97617 | 27.60000 | 4155 ft | 271 kts | 95° |
| 2026-04-21 17:03 | 46.97558 | 27.62730 | 3863 ft | 268 kts | 79° |
| 2026-04-21 17:03 | 46.98191 | 27.65237 | 3548 ft | 260 kts | 58° |
| 2026-04-21 17:03 | 46.99130 | 27.67496 | 3547 ft | 260 kts | 54° |
| 2026-04-21 17:04 | 47.00128 | 27.69753 | 3893 ft | 263 kts | 54° |
| 2026-04-21 17:04 | 47.01132 | 27.71950 | 3986 ft | 261 kts | 49° |
| 2026-04-21 17:04 | 47.02515 | 27.73617 | 3973 ft | 256 kts | 20° |
| 2026-04-21 17:04 | 47.04219 | 27.73939 | 3878 ft | 242 kts | 348° |
| 2026-04-21 17:05 | 47.05724 | 27.73088 | 3766 ft | 228 kts | 331° |
| 2026-04-21 17:05 | 47.07039 | 27.71926 | 3674 ft | 213 kts | 328° |
| 2026-04-21 17:05 | 47.08247 | 27.70794 | 3525 ft | 200 kts | 328° |
| 2026-04-21 17:05 | 47.09392 | 27.69729 | 3411 ft | 187 kts | 328° |
| 2026-04-21 17:06 | 47.10456 | 27.68756 | 3258 ft | 176 kts | 329° |
| 2026-04-21 17:06 | 47.11471 | 27.67840 | 2956 ft | 167 kts | 329° |
| 2026-04-21 17:06 | 47.12447 | 27.66961 | 2493 ft | 163 kts | 330° |
| 2026-04-21 17:06 | 47.13420 | 27.66101 | 1938 ft | 163 kts | 331° |
| 2026-04-21 17:07 | 47.14076 | 27.65533 | 1557 ft | 167 kts | 332° |
| 2026-04-21 17:07 | 47.15440 | 27.64378 | 868 ft | 165 kts | 329° |
| 2026-04-21 17:07 | 47.16376 | 27.63545 | 586 ft | 148 kts | 328° |
| 2026-04-21 17:07 | 47.17228 | 27.62799 | 382 ft | 138 kts | 327° |
| 2026-04-21 17:08 | 47.17971 | 27.62139 | 380 ft | 99 kts | 331° |
| 2026-04-21 17:08 | 47.18329 | 27.61821 | 398 ft | 38 kts | 329° |
| 2026-04-21 17:08 | 47.18538 | 27.61635 | 405 ft | 33 kts | 329° |
| 2026-04-21 17:08 | 47.18730 | 27.61467 | 414 ft | 30 kts | 328° |
| 2026-04-21 17:09 | 47.18914 | 27.61299 | 416 ft | 13 kts | 149° |
| 2026-04-21 17:09 | 47.18858 | 27.61351 | 414 ft | 17 kts | 148° |
| 2026-04-21 17:09 | 47.18729 | 27.61469 | 414 ft | 27 kts | 148° |
| 2026-04-21 17:10 | 47.18541 | 27.61632 | 405 ft | 35 kts | 149° |
| 2026-04-21 17:10 | 47.18309 | 27.61839 | 397 ft | 41 kts | 148° |
| 2026-04-21 17:10 | 47.18055 | 27.62064 | 385 ft | 40 kts | 149° |
| 2026-04-21 17:10 | 47.17857 | 27.62184 | 375 ft | 29 kts | 200° |
| 2026-04-21 17:11 | 47.17767 | 27.61959 | 377 ft | 20 kts | 243° |
| 2026-04-21 17:11 | 47.17679 | 27.61960 | 375 ft | 15 kts | 151° |
| 2026-04-21 17:11 | 47.17574 | 27.62039 | 371 ft | 18 kts | 153° |
| 2026-04-21 17:11 | 47.17526 | 27.61984 | 370 ft | 1 kts | 275° |
| 2026-04-21 17:12 | 47.17526 | 27.61973 | 370 ft | 3 kts | 274° |
| 2026-04-21 17:12 | 47.17526 | 27.61972 | 370 ft | 0 kts | 274° |